sensor_id;sensor_type;location;lat;lon;timestamp;pressure;altitude;pressure_sealevel;temperature;humidity
17505;BME280;8870;50.950;11.762;2024-01-30T00:00:10;99710.50;;;4.83;100.00
17505;BME280;8870;50.950;11.762;2024-01-30T00:05:28;99716.81;;;4.82;100.00
17505;BME280;8870;50.950;11.762;2024-01-30T00:11:02;99713.00;;;4.86;100.00
17505;BME280;8870;50.950;11.762;2024-01-30T00:16:21;99709.75;;;4.96;100.00
17505;BME280;8870;50.950;11.762;2024-01-30T00:21:51;99710.91;;;4.91;100.00
17505;BME280;8870;50.950;11.762;2024-01-30T00:27:12;99710.50;;;4.83;100.00
17505;BME280;8870;50.950;11.762;2024-01-30T00:32:43;99710.28;;;4.72;100.00
17505;BME280;8870;50.950;11.762;2024-01-30T00:38:02;99706.69;;;4.73;100.00
17505;BME280;8870;50.950;11.762;2024-01-30T00:43:35;99694.38;;;4.70;100.00
17505;BME280;8870;50.950;11.762;2024-01-30T00:48:53;99694.28;;;4.72;100.00
17505;BME280;8870;50.950;11.762;2024-01-30T00:54:24;99696.84;;;4.73;100.00
17505;BME280;8870;50.950;11.762;2024-01-30T00:59:45;99697.72;;;4.74;100.00
17505;BME280;8870;50.950;11.762;2024-01-30T01:05:16;99690.47;;;4.76;100.00
17505;BME280;8870;50.950;11.762;2024-01-30T01:10:34;99690.84;;;4.70;100.00
17505;BME280;8870;50.950;11.762;2024-01-30T01:16:08;99692.44;;;4.58;100.00
17505;BME280;8870;50.950;11.762;2024-01-30T01:21:26;99692.69;;;4.53;100.00
17505;BME280;8870;50.950;11.762;2024-01-30T01:26:58;99692.06;;;4.64;100.00
17505;BME280;8870;50.950;11.762;2024-01-30T01:32:18;99684.66;;;4.69;100.00
17505;BME280;8870;50.950;11.762;2024-01-30T01:37:49;99683.59;;;4.72;100.00
17505;BME280;8870;50.950;11.762;2024-01-30T01:43:09;99693.16;;;4.76;100.00
17505;BME280;8870;50.950;11.762;2024-01-30T01:48:43;99682.53;;;4.74;100.00
17505;BME280;8870;50.950;11.762;2024-01-30T01:54:03;99678.94;;;4.75;100.00
17505;BME280;8870;50.950;11.762;2024-01-30T01:59:34;99672.03;;;4.71;100.00
17505;BME280;8870;50.950;11.762;2024-01-30T02:04:55;99669.47;;;4.70;100.00
17505;BME280;8870;50.950;11.762;2024-01-30T02:10:26;99660.69;;;4.68;100.00
17505;BME280;8870;50.950;11.762;2024-01-30T02:15:49;99660.13;;;4.62;100.00
17505;BME280;8870;50.950;11.762;2024-01-30T02:21:23;99666.78;;;4.55;100.00
17505;BME280;8870;50.950;11.762;2024-01-30T02:26:41;99663.25;;;4.55;100.00
17505;BME280;8870;50.950;11.762;2024-01-30T02:32:12;99667.16;;;4.49;100.00
17505;BME280;8870;50.950;11.762;2024-01-30T02:37:33;99660.44;;;4.42;100.00
17505;BME280;8870;50.950;11.762;2024-01-30T02:43:05;99659.00;;;4.36;100.00
17505;BME280;8870;50.950;11.762;2024-01-30T02:48:30;99657.22;;;4.37;100.00
17505;BME280;8870;50.950;11.762;2024-01-30T02:54:05;99652.22;;;4.30;100.00
17505;BME280;8870;50.950;11.762;2024-01-30T02:59:24;99650.88;;;4.23;100.00
17505;BME280;8870;50.950;11.762;2024-01-30T03:04:57;99654.88;;;4.16;100.00
17505;BME280;8870;50.950;11.762;2024-01-30T03:10:18;99646.09;;;4.14;100.00
17505;BME280;8870;50.950;11.762;2024-01-30T03:15:49;99650.56;;;4.13;100.00
17505;BME280;8870;50.950;11.762;2024-01-30T03:21:08;99647.16;;;4.11;100.00
17505;BME280;8870;50.950;11.762;2024-01-30T03:26:41;99653.31;;;4.12;100.00
17505;BME280;8870;50.950;11.762;2024-01-30T03:32:00;99643.59;;;4.11;100.00
17505;BME280;8870;50.950;11.762;2024-01-30T03:37:30;99637.03;;;4.16;100.00
17505;BME280;8870;50.950;11.762;2024-01-30T03:42:51;99629.91;;;4.17;100.00
17505;BME280;8870;50.950;11.762;2024-01-30T03:48:22;99631.59;;;4.18;100.00
17505;BME280;8870;50.950;11.762;2024-01-30T03:53:41;99623.59;;;4.18;100.00
17505;BME280;8870;50.950;11.762;2024-01-30T03:59:15;99621.81;;;4.19;100.00
17505;BME280;8870;50.950;11.762;2024-01-30T04:04:39;99614.59;;;4.21;100.00
17505;BME280;8870;50.950;11.762;2024-01-30T04:10:10;99617.31;;;4.19;100.00
17505;BME280;8870;50.950;11.762;2024-01-30T04:15:32;99610.66;;;4.12;100.00
17505;BME280;8870;50.950;11.762;2024-01-30T04:21:04;99618.03;;;4.23;100.00
17505;BME280;8870;50.950;11.762;2024-01-30T04:26:23;99621.31;;;4.12;100.00
17505;BME280;8870;50.950;11.762;2024-01-30T04:31:56;99631.84;;;3.99;100.00
17505;BME280;8870;50.950;11.762;2024-01-30T04:37:15;99633.25;;;3.90;100.00
17505;BME280;8870;50.950;11.762;2024-01-30T04:42:46;99620.84;;;3.89;100.00
17505;BME280;8870;50.950;11.762;2024-01-30T04:48:07;99627.75;;;3.93;100.00
17505;BME280;8870;50.950;11.762;2024-01-30T04:53:38;99620.69;;;3.92;100.00
17505;BME280;8870;50.950;11.762;2024-01-30T04:58:57;99615.84;;;3.99;100.00
17505;BME280;8870;50.950;11.762;2024-01-30T05:04:30;99611.19;;;4.03;100.00
17505;BME280;8870;50.950;11.762;2024-01-30T05:09:49;99611.19;;;4.03;100.00
17505;BME280;8870;50.950;11.762;2024-01-30T05:15:21;99613.75;;;4.04;100.00
17505;BME280;8870;50.950;11.762;2024-01-30T05:20:42;99602.91;;;4.07;100.00
17505;BME280;8870;50.950;11.762;2024-01-30T05:26:13;99602.81;;;4.09;100.00
17505;BME280;8870;50.950;11.762;2024-01-30T05:31:32;99609.19;;;4.06;100.00
17505;BME280;8870;50.950;11.762;2024-01-30T05:37:05;99613.41;;;4.10;100.00
17505;BME280;8870;50.950;11.762;2024-01-30T05:42:24;99616.53;;;4.03;100.00
17505;BME280;8870;50.950;11.762;2024-01-30T05:47:55;99620.75;;;3.91;100.00
17505;BME280;8870;50.950;11.762;2024-01-30T05:53:15;99615.88;;;3.83;100.00
17505;BME280;8870;50.950;11.762;2024-01-30T05:58:46;99607.13;;;3.81;100.00
17505;BME280;8870;50.950;11.762;2024-01-30T06:04:05;99610.91;;;3.77;100.00
17505;BME280;8870;50.950;11.762;2024-01-30T06:09:38;99624.41;;;3.74;100.00
17505;BME280;8870;50.950;11.762;2024-01-30T06:14:57;99615.56;;;3.73;100.00
17505;BME280;8870;50.950;11.762;2024-01-30T06:20:28;99604.13;;;3.71;100.00
17505;BME280;8870;50.950;11.762;2024-01-30T06:25:49;99611.59;;;3.64;100.00
17505;BME280;8870;50.950;11.762;2024-01-30T06:31:20;99615.38;;;3.60;100.00
17505;BME280;8870;50.950;11.762;2024-01-30T06:36:39;99604.91;;;3.57;100.00
17505;BME280;8870;50.950;11.762;2024-01-30T06:42:12;99603.53;;;3.50;100.00
17505;BME280;8870;50.950;11.762;2024-01-30T06:47:31;99606.38;;;3.47;100.00
17505;BME280;8870;50.950;11.762;2024-01-30T06:53:01;99612.81;;;3.43;100.00
17505;BME280;8870;50.950;11.762;2024-01-30T06:58:22;99613.66;;;3.43;100.00
17505;BME280;8870;50.950;11.762;2024-01-30T07:03:54;99613.66;;;3.43;100.00
17505;BME280;8870;50.950;11.762;2024-01-30T07:09:13;99618.31;;;3.39;100.00
17505;BME280;8870;50.950;11.762;2024-01-30T07:14:47;99620.22;;;3.37;100.00
17505;BME280;8870;50.950;11.762;2024-01-30T07:20:07;99620.97;;;3.39;100.00
17505;BME280;8870;50.950;11.762;2024-01-30T07:25:42;99611.94;;;3.42;100.00
17505;BME280;8870;50.950;11.762;2024-01-30T07:31:04;99621.25;;;3.51;100.00
17505;BME280;8870;50.950;11.762;2024-01-30T07:36:36;99625.34;;;3.57;100.00
17505;BME280;8870;50.950;11.762;2024-01-30T07:41:54;99626.41;;;3.54;100.00
17505;BME280;8870;50.950;11.762;2024-01-30T07:47:27;99633.28;;;3.58;100.00
17505;BME280;8870;50.950;11.762;2024-01-30T07:52:46;99637.03;;;3.70;100.00
17505;BME280;8870;50.950;11.762;2024-01-30T07:58:17;99637.56;;;3.77;100.00
17505;BME280;8870;50.950;11.762;2024-01-30T08:03:37;99633.41;;;3.87;100.00
17505;BME280;8870;50.950;11.762;2024-01-30T08:09:09;99644.41;;;3.97;100.00
17505;BME280;8870;50.950;11.762;2024-01-30T08:14:27;99638.53;;;4.06;100.00
17505;BME280;8870;50.950;11.762;2024-01-30T08:20:00;99644.19;;;4.16;100.00
17505;BME280;8870;50.950;11.762;2024-01-30T08:25:20;99646.50;;;4.22;100.00
17505;BME280;8870;50.950;11.762;2024-01-30T08:30:52;99640.59;;;4.31;100.00
17505;BME280;8870;50.950;11.762;2024-01-30T08:36:12;99641.69;;;4.43;100.00
17505;BME280;8870;50.950;11.762;2024-01-30T08:41:44;99632.84;;;4.57;100.00
17505;BME280;8870;50.950;11.762;2024-01-30T08:47:02;99637.25;;;4.73;100.00
17505;BME280;8870;50.950;11.762;2024-01-30T08:52:35;99632.50;;;4.92;100.00
17505;BME280;8870;50.950;11.762;2024-01-30T08:57:55;99623.59;;;5.06;100.00
17505;BME280;8870;50.950;11.762;2024-01-30T09:03:28;99617.31;;;5.22;100.00
17505;BME280;8870;50.950;11.762;2024-01-30T09:08:48;99619.09;;;5.36;100.00
17505;BME280;8870;50.950;11.762;2024-01-30T09:14:20;99618.88;;;5.53;100.00
17505;BME280;8870;50.950;11.762;2024-01-30T09:19:38;99618.84;;;5.68;100.00
17505;BME280;8870;50.950;11.762;2024-01-30T09:25:11;99621.00;;;5.76;100.00
17505;BME280;8870;50.950;11.762;2024-01-30T09:30:30;99623.16;;;5.83;100.00
17505;BME280;8870;50.950;11.762;2024-01-30T09:36:01;99621.81;;;5.91;100.00
17505;BME280;8870;50.950;11.762;2024-01-30T09:41:23;99616.63;;;6.02;100.00
17505;BME280;8870;50.950;11.762;2024-01-30T09:46:55;99624.78;;;6.13;100.00
17505;BME280;8870;50.950;11.762;2024-01-30T09:52:25;99614.88;;;6.28;100.00
17505;BME280;8870;50.950;11.762;2024-01-30T09:57:58;99618.88;;;6.48;100.00
17505;BME280;8870;50.950;11.762;2024-01-30T10:03:17;99609.34;;;6.70;100.00
17505;BME280;8870;50.950;11.762;2024-01-30T10:08:49;99605.13;;;6.92;100.00
17505;BME280;8870;50.950;11.762;2024-01-30T10:14:09;99607.50;;;7.09;100.00
17505;BME280;8870;50.950;11.762;2024-01-30T10:19:41;99605.66;;;7.23;100.00
17505;BME280;8870;50.950;11.762;2024-01-30T10:25:00;99605.25;;;7.40;100.00
17505;BME280;8870;50.950;11.762;2024-01-30T10:30:33;99592.22;;;7.60;100.00
17505;BME280;8870;50.950;11.762;2024-01-30T10:35:52;99591.81;;;7.78;100.00
17505;BME280;8870;50.950;11.762;2024-01-30T10:41:27;99586.03;;;7.95;100.00
17505;BME280;8870;50.950;11.762;2024-01-30T10:46:51;99570.94;;;8.06;100.00
17505;BME280;8870;50.950;11.762;2024-01-30T10:52:26;99574.41;;;8.19;100.00
17505;BME280;8870;50.950;11.762;2024-01-30T10:57:58;99572.03;;;8.39;100.00
17505;BME280;8870;50.950;11.762;2024-01-30T11:03:20;99574.19;;;8.58;100.00
17505;BME280;8870;50.950;11.762;2024-01-30T11:09:00;99566.25;;;8.79;100.00
17505;BME280;8870;50.950;11.762;2024-01-30T11:14:25;99560.13;;;9.00;100.00
17505;BME280;8870;50.950;11.762;2024-01-30T11:20:02;99570.75;;;9.24;100.00
17505;BME280;8870;50.950;11.762;2024-01-30T11:25:21;99564.72;;;9.43;100.00
17505;BME280;8870;50.950;11.762;2024-01-30T11:31:03;99553.56;;;9.59;100.00
17505;BME280;8870;50.950;11.762;2024-01-30T11:36:25;99544.59;;;9.70;100.00
17505;BME280;8870;50.950;11.762;2024-01-30T11:41:59;99541.00;;;9.81;100.00
17505;BME280;8870;50.950;11.762;2024-01-30T11:47:20;99524.94;;;9.91;100.00
17505;BME280;8870;50.950;11.762;2024-01-30T11:52:54;99518.75;;;10.00;100.00
17505;BME280;8870;50.950;11.762;2024-01-30T11:58:12;99516.00;;;10.11;100.00
17505;BME280;8870;50.950;11.762;2024-01-30T12:03:43;99507.84;;;10.23;100.00
17505;BME280;8870;50.950;11.762;2024-01-30T12:09:10;99511.72;;;10.30;100.00
17505;BME280;8870;50.950;11.762;2024-01-30T12:14:41;99505.81;;;10.36;100.00
17505;BME280;8870;50.950;11.762;2024-01-30T12:20:03;99503.47;;;10.43;100.00
17505;BME280;8870;50.950;11.762;2024-01-30T12:25:37;99508.19;;;10.51;100.00
17505;BME280;8870;50.950;11.762;2024-01-30T12:30:56;99504.09;;;10.56;100.00
17505;BME280;8870;50.950;11.762;2024-01-30T12:36:29;99495.34;;;10.64;100.00
17505;BME280;8870;50.950;11.762;2024-01-30T12:41:51;99499.34;;;10.70;100.00
17505;BME280;8870;50.950;11.762;2024-01-30T12:47:23;99493.56;;;10.74;100.00
17505;BME280;8870;50.950;11.762;2024-01-30T12:52:42;99491.84;;;10.83;100.00
17505;BME280;8870;50.950;11.762;2024-01-30T12:58:16;99483.22;;;10.89;100.00
17505;BME280;8870;50.950;11.762;2024-01-30T13:03:35;99488.94;;;10.96;100.00
17505;BME280;8870;50.950;11.762;2024-01-30T13:09:07;99490.06;;;11.03;100.00
17505;BME280;8870;50.950;11.762;2024-01-30T13:14:27;99480.59;;;11.19;100.00
17505;BME280;8870;50.950;11.762;2024-01-30T13:19:59;99488.00;;;11.27;100.00
17505;BME280;8870;50.950;11.762;2024-01-30T13:25:20;99476.66;;;11.23;100.00
17505;BME280;8870;50.950;11.762;2024-01-30T13:30:54;99486.13;;;11.17;100.00
17505;BME280;8870;50.950;11.762;2024-01-30T13:36:13;99470.81;;;11.18;100.00
17505;BME280;8870;50.950;11.762;2024-01-30T13:41:44;99474.19;;;11.10;100.00
17505;BME280;8870;50.950;11.762;2024-01-30T13:47:06;99462.69;;;10.98;100.00
17505;BME280;8870;50.950;11.762;2024-01-30T13:52:37;99468.88;;;10.89;100.00
17505;BME280;8870;50.950;11.762;2024-01-30T13:58:09;99474.13;;;10.81;100.00
17505;BME280;8870;50.950;11.762;2024-01-30T14:03:29;99471.00;;;10.75;100.00
17505;BME280;8870;50.950;11.762;2024-01-30T14:09:01;99471.78;;;10.66;100.00
17505;BME280;8870;50.950;11.762;2024-01-30T14:14:21;99464.25;;;10.60;100.00
17505;BME280;8870;50.950;11.762;2024-01-30T14:19:54;99470.91;;;10.56;100.00
17505;BME280;8870;50.950;11.762;2024-01-30T14:25:13;99458.09;;;10.48;100.00
17505;BME280;8870;50.950;11.762;2024-01-30T14:30:45;99466.59;;;10.43;100.00
17505;BME280;8870;50.950;11.762;2024-01-30T14:36:06;99467.97;;;10.38;100.00
17505;BME280;8870;50.950;11.762;2024-01-30T14:41:39;99469.34;;;10.32;100.00
17505;BME280;8870;50.950;11.762;2024-01-30T14:46:57;99470.88;;;10.25;100.00
17505;BME280;8870;50.950;11.762;2024-01-30T14:52:31;99474.22;;;10.17;100.00
17505;BME280;8870;50.950;11.762;2024-01-30T14:58:04;99453.09;;;10.12;100.00
17505;BME280;8870;50.950;11.762;2024-01-30T15:03:22;99460.00;;;10.05;100.00
17505;BME280;8870;50.950;11.762;2024-01-30T15:08:55;99466.88;;;9.98;100.00
17505;BME280;8870;50.950;11.762;2024-01-30T15:14:14;99457.63;;;9.91;100.00
17505;BME280;8870;50.950;11.762;2024-01-30T15:19:46;99455.72;;;9.81;100.00
17505;BME280;8870;50.950;11.762;2024-01-30T15:25:10;99445.47;;;9.75;100.00
17505;BME280;8870;50.950;11.762;2024-01-30T15:30:41;99462.16;;;9.69;100.00
17505;BME280;8870;50.950;11.762;2024-01-30T15:36:00;99454.84;;;9.60;100.00
17505;BME280;8870;50.950;11.762;2024-01-30T15:41:34;99467.94;;;9.53;100.00
17505;BME280;8870;50.950;11.762;2024-01-30T15:46:53;99476.94;;;9.42;100.00
17505;BME280;8870;50.950;11.762;2024-01-30T15:52:24;99483.34;;;9.30;100.00
17505;BME280;8870;50.950;11.762;2024-01-30T15:57:57;99489.97;;;9.14;100.00
17505;BME280;8870;50.950;11.762;2024-01-30T16:03:16;99484.63;;;9.03;100.00
17505;BME280;8870;50.950;11.762;2024-01-30T16:08:48;99499.03;;;8.90;100.00
17505;BME280;8870;50.950;11.762;2024-01-30T16:14:09;99490.53;;;8.74;100.00
17505;BME280;8870;50.950;11.762;2024-01-30T16:19:40;99491.00;;;8.68;100.00
17505;BME280;8870;50.950;11.762;2024-01-30T16:24:58;99495.63;;;8.66;100.00
17505;BME280;8870;50.950;11.762;2024-01-30T16:30:32;99505.41;;;8.55;100.00
17505;BME280;8870;50.950;11.762;2024-01-30T16:35:51;99518.69;;;8.45;100.00
17505;BME280;8870;50.950;11.762;2024-01-30T16:41:23;99525.41;;;8.40;100.00
17505;BME280;8870;50.950;11.762;2024-01-30T16:46:47;99523.56;;;8.40;100.00
17505;BME280;8870;50.950;11.762;2024-01-30T16:52:18;99525.28;;;8.41;100.00
17505;BME280;8870;50.950;11.762;2024-01-30T16:57:50;99533.56;;;8.38;100.00
17505;BME280;8870;50.950;11.762;2024-01-30T17:03:11;99524.16;;;8.44;100.00
17505;BME280;8870;50.950;11.762;2024-01-30T17:08:42;99528.09;;;8.40;100.00
17505;BME280;8870;50.950;11.762;2024-01-30T17:14:00;99530.03;;;8.38;100.00
17505;BME280;8870;50.950;11.762;2024-01-30T17:19:35;99516.63;;;8.38;100.00
17505;BME280;8870;50.950;11.762;2024-01-30T17:24:54;99525.66;;;8.37;100.00
17505;BME280;8870;50.950;11.762;2024-01-30T17:30:26;99524.06;;;8.34;100.00
17505;BME280;8870;50.950;11.762;2024-01-30T17:35:47;99532.22;;;8.32;100.00
17505;BME280;8870;50.950;11.762;2024-01-30T17:41:18;99537.22;;;8.26;100.00
17505;BME280;8870;50.950;11.762;2024-01-30T17:46:36;99545.38;;;8.24;100.00
17505;BME280;8870;50.950;11.762;2024-01-30T17:52:09;99551.72;;;8.23;100.00
17505;BME280;8870;50.950;11.762;2024-01-30T17:57:41;99556.34;;;8.21;100.00
17505;BME280;8870;50.950;11.762;2024-01-30T18:02:59;99552.22;;;8.17;100.00
17505;BME280;8870;50.950;11.762;2024-01-30T18:08:34;99564.16;;;8.13;100.00
17505;BME280;8870;50.950;11.762;2024-01-30T18:13:52;99564.00;;;8.03;100.00
17505;BME280;8870;50.950;11.762;2024-01-30T18:19:23;99573.28;;;7.99;100.00
17505;BME280;8870;50.950;11.762;2024-01-30T18:24:44;99572.75;;;7.94;100.00
17505;BME280;8870;50.950;11.762;2024-01-30T18:30:15;99575.03;;;7.87;100.00
17505;BME280;8870;50.950;11.762;2024-01-30T18:35:33;99583.31;;;7.84;100.00
17505;BME280;8870;50.950;11.762;2024-01-30T18:41:06;99581.72;;;7.81;100.00
17505;BME280;8870;50.950;11.762;2024-01-30T18:46:25;99587.09;;;7.81;100.00
17505;BME280;8870;50.950;11.762;2024-01-30T18:51:56;99605.75;;;7.83;100.00
17505;BME280;8870;50.950;11.762;2024-01-30T18:57:31;99602.44;;;7.79;100.00
17505;BME280;8870;50.950;11.762;2024-01-30T19:02:51;99600.63;;;7.80;100.00
17505;BME280;8870;50.950;11.762;2024-01-30T19:08:22;99603.19;;;7.81;100.00
17505;BME280;8870;50.950;11.762;2024-01-30T19:13:44;99593.06;;;7.85;100.00
17505;BME280;8870;50.950;11.762;2024-01-30T19:19:15;99593.59;;;7.90;100.00
17505;BME280;8870;50.950;11.762;2024-01-30T19:24:33;99601.28;;;7.95;100.00
17505;BME280;8870;50.950;11.762;2024-01-30T19:30:09;99599.59;;;7.94;100.00
17505;BME280;8870;50.950;11.762;2024-01-30T19:35:27;99614.09;;;7.91;100.00
17505;BME280;8870;50.950;11.762;2024-01-30T19:40:58;99615.06;;;7.90;100.00
17505;BME280;8870;50.950;11.762;2024-01-30T19:46:19;99626.53;;;7.92;100.00
17505;BME280;8870;50.950;11.762;2024-01-30T19:51:50;99628.97;;;7.95;100.00
17505;BME280;8870;50.950;11.762;2024-01-30T19:57:08;99634.88;;;8.00;100.00
17505;BME280;8870;50.950;11.762;2024-01-30T20:02:42;99642.78;;;8.02;100.00
17505;BME280;8870;50.950;11.762;2024-01-30T20:08:01;99654.63;;;7.99;100.00
17505;BME280;8870;50.950;11.762;2024-01-30T20:13:35;99658.16;;;8.00;100.00
17505;BME280;8870;50.950;11.762;2024-01-30T20:18:58;99663.63;;;7.98;100.00
17505;BME280;8870;50.950;11.762;2024-01-30T20:24:29;99678.03;;;7.97;100.00
17505;BME280;8870;50.950;11.762;2024-01-30T20:29:48;99675.25;;;7.99;100.00
17505;BME280;8870;50.950;11.762;2024-01-30T20:35:21;99690.25;;;8.01;100.00
17505;BME280;8870;50.950;11.762;2024-01-30T20:40:41;99691.97;;;8.02;100.00
17505;BME280;8870;50.950;11.762;2024-01-30T20:46:13;99690.34;;;8.00;100.00
17505;BME280;8870;50.950;11.762;2024-01-30T20:51:42;99688.66;;;7.99;100.00
17505;BME280;8870;50.950;11.762;2024-01-30T20:57:13;99686.94;;;7.98;100.00
17505;BME280;8870;50.950;11.762;2024-01-30T21:02:44;99696.06;;;7.95;100.00
17505;BME280;8870;50.950;11.762;2024-01-30T21:08:06;99696.06;;;7.95;100.00
17505;BME280;8870;50.950;11.762;2024-01-30T21:13:38;99696.31;;;7.92;100.00
17505;BME280;8870;50.950;11.762;2024-01-30T21:18:56;99705.41;;;7.90;100.00
17505;BME280;8870;50.950;11.762;2024-01-30T21:24:33;99700.19;;;7.88;100.00
17505;BME280;8870;50.950;11.762;2024-01-30T21:29:51;99693.09;;;7.87;100.00
17505;BME280;8870;50.950;11.762;2024-01-30T21:35:24;99686.97;;;7.85;100.00
17505;BME280;8870;50.950;11.762;2024-01-30T21:40:46;99687.94;;;7.84;100.00
17505;BME280;8870;50.950;11.762;2024-01-30T21:46:23;99687.22;;;7.82;100.00
17505;BME280;8870;50.950;11.762;2024-01-30T21:51:47;99691.84;;;7.80;100.00
17505;BME280;8870;50.950;11.762;2024-01-30T21:57:21;99696.97;;;7.83;100.00
17505;BME280;8870;50.950;11.762;2024-01-30T22:02:39;99698.94;;;7.81;100.00
17505;BME280;8870;50.950;11.762;2024-01-30T22:08:12;99706.56;;;7.74;100.00
17505;BME280;8870;50.950;11.762;2024-01-30T22:13:42;99698.94;;;7.68;100.00
17505;BME280;8870;50.950;11.762;2024-01-30T22:19:18;99701.84;;;7.65;100.00
17505;BME280;8870;50.950;11.762;2024-01-30T22:24:36;99700.25;;;7.62;100.00
17505;BME280;8870;50.950;11.762;2024-01-30T22:30:11;99703.38;;;7.56;100.00
17505;BME280;8870;50.950;11.762;2024-01-30T22:35:29;99714.53;;;7.50;100.00
17505;BME280;8870;50.950;11.762;2024-01-30T22:41:00;99722.28;;;7.42;100.00
17505;BME280;8870;50.950;11.762;2024-01-30T22:46:21;99720.78;;;7.37;100.00
17505;BME280;8870;50.950;11.762;2024-01-30T22:51:52;99729.25;;;7.31;100.00
17505;BME280;8870;50.950;11.762;2024-01-30T22:57:10;99731.41;;;7.26;100.00
17505;BME280;8870;50.950;11.762;2024-01-30T23:02:46;99728.84;;;7.24;100.00
17505;BME280;8870;50.950;11.762;2024-01-30T23:08:05;99736.13;;;7.22;100.00
17505;BME280;8870;50.950;11.762;2024-01-30T23:13:37;99730.00;;;7.20;100.00
17505;BME280;8870;50.950;11.762;2024-01-30T23:18:58;99737.00;;;7.23;100.00
17505;BME280;8870;50.950;11.762;2024-01-30T23:24:29;99750.06;;;7.28;100.00
17505;BME280;8870;50.950;11.762;2024-01-30T23:29:47;99752.75;;;7.28;100.00
17505;BME280;8870;50.950;11.762;2024-01-30T23:35:22;99750.78;;;7.30;100.00
17505;BME280;8870;50.950;11.762;2024-01-30T23:40:40;99747.06;;;7.32;100.00
17505;BME280;8870;50.950;11.762;2024-01-30T23:46:11;99757.47;;;7.37;100.00
17505;BME280;8870;50.950;11.762;2024-01-30T23:51:32;99756.38;;;7.39;100.00
17505;BME280;8870;50.950;11.762;2024-01-30T23:57:05;99768.81;;;7.40;100.00
